Time;durP1;ratioP1;P1;durP2;ratioP2;P2;SDS_P1;SDS_P2;PMS_P1;PMS_P2;Temp;Humidity;BMP_temperature;BMP_pressure;BME280_temperature;BME280_humidity;BME280_pressure;Samples;Min_cycle;Max_cycle;Signal;HPM_P1;HPM_P2
2024/03/12 00:00:45;;;;;;;9.48;6.45;;;;;;;4.83;100.00;96920.00;4981725;28;20416;-80
2024/03/12 00:03:11;;;;;;;11.88;6.75;;;;;;;4.78;100.00;96927.75;4981889;28;20396;-80
2024/03/12 00:05:38;;;;;;;10.70;6.90;;;;;;;4.77;100.00;96923.53;4981182;28;20488;-80
2024/03/12 00:08:05;;;;;;;10.93;6.80;;;;;;;4.72;100.00;96924.22;4981489;28;20404;-79
2024/03/12 00:10:31;;;;;;;11.40;6.15;;;;;;;4.72;100.00;96928.66;4981644;28;20490;-79
2024/03/12 00:13:01;;;;;;;11.90;6.75;;;;;;;4.67;100.00;96927.50;4982628;28;20839;-80
2024/03/12 00:15:28;;;;;;;11.13;6.88;;;;;;;4.66;100.00;96920.66;4981233;28;20490;-80
2024/03/12 00:17:55;;;;;;;11.02;6.80;;;;;;;4.64;100.00;96927.16;4981347;28;20404;-79
2024/03/12 00:20:33;;;;;;;10.90;6.88;;;;;;;4.61;100.00;96932.84;4982458;28;20404;-79
2024/03/12 00:23:01;;;;;;;14.30;7.78;;;;;;;4.62;100.00;96937.06;4981828;28;20420;-80
2024/03/12 00:25:30;;;;;;;15.55;9.43;;;;;;;4.60;100.00;96936.47;4981174;28;20471;-79
2024/03/12 00:27:56;;;;;;;17.75;8.80;;;;;;;4.60;100.00;96942.53;4980805;28;20464;-79
2024/03/12 00:30:27;;;;;;;15.35;8.43;;;;;;;4.59;100.00;96932.25;4980677;28;20434;-79
2024/03/12 00:32:56;;;;;;;14.05;7.80;;;;;;;4.56;100.00;96940.59;4981019;28;20482;-80
2024/03/12 00:35:24;;;;;;;16.20;8.20;;;;;;;4.52;100.00;96940.22;4981962;28;20428;-79
2024/03/12 00:37:50;;;;;;;16.35;8.32;;;;;;;4.50;100.00;96939.66;4983618;28;20412;-79
2024/03/12 00:40:19;;;;;;;13.18;8.68;;;;;;;4.48;100.00;96940.91;4981280;28;20959;-79
2024/03/12 00:42:47;;;;;;;17.10;9.50;;;;;;;4.42;100.00;96936.56;4980239;28;20469;-79
2024/03/12 00:45:14;;;;;;;15.77;9.25;;;;;;;4.43;100.00;96938.16;4979630;28;20798;-80
2024/03/12 00:47:41;;;;;;;16.98;9.63;;;;;;;4.40;100.00;96934.16;4981219;28;20404;-79
2024/03/12 00:50:11;;;;;;;16.38;9.25;;;;;;;4.37;100.00;96934.59;4983449;28;20415;-80
2024/03/12 00:52:37;;;;;;;16.80;9.15;;;;;;;4.36;100.00;96940.84;4980482;28;20447;-79
2024/03/12 00:55:04;;;;;;;16.98;9.35;;;;;;;4.34;100.00;96937.66;4980223;28;20428;-79
2024/03/12 00:57:31;;;;;;;13.65;9.15;;;;;;;4.33;100.00;96937.88;4980237;28;20412;-79
2024/03/12 00:59:57;;;;;;;17.27;9.95;;;;;;;4.29;100.00;96932.28;4980536;28;20408;-79
2024/03/12 01:02:25;;;;;;;15.57;9.38;;;;;;;4.31;100.00;96939.91;4979455;28;20920;-81
2024/03/12 01:04:52;;;;;;;16.95;9.63;;;;;;;4.32;100.00;96944.13;4980458;28;20404;-81
2024/03/12 01:07:20;;;;;;;17.20;9.55;;;;;;;4.25;100.00;96945.03;4980337;28;20877;-81
2024/03/12 01:09:46;;;;;;;17.13;9.75;;;;;;;4.25;100.00;96946.84;4980162;28;20746;-79
2024/03/12 01:12:13;;;;;;;21.08;10.70;;;;;;;4.18;100.00;96941.69;4980574;28;20516;-80
2024/03/12 01:14:39;;;;;;;17.25;9.93;;;;;;;4.20;100.00;96944.91;4979162;28;20408;-80
2024/03/12 01:17:09;;;;;;;14.13;9.60;;;;;;;4.20;100.00;96950.16;4979708;28;20404;-81
2024/03/12 01:19:35;;;;;;;16.52;9.52;;;;;;;4.17;100.00;96952.38;4979744;28;20954;-80
2024/03/12 01:22:01;;;;;;;16.47;9.80;;;;;;;4.11;100.00;96948.84;4980545;28;20412;-81
2024/03/12 01:24:29;;;;;;;15.88;9.43;;;;;;;4.13;100.00;96946.00;4980380;28;20478;-81
2024/03/12 01:26:56;;;;;;;15.88;9.18;;;;;;;4.09;100.00;96950.88;4980201;28;20440;-82
2024/03/12 01:29:22;;;;;;;14.60;9.45;;;;;;;4.02;100.00;96949.34;4979640;28;20825;-82
2024/03/12 01:31:50;;;;;;;13.38;9.13;;;;;;;4.00;100.00;96949.56;4980314;28;20464;-80
2024/03/12 01:34:18;;;;;;;16.55;9.43;;;;;;;3.95;100.00;96946.00;4975502;28;20497;-79
2024/03/12 01:36:47;;;;;;;14.00;9.13;;;;;;;3.91;100.00;96953.50;4959909;28;20405;-81
2024/03/12 01:39:16;;;;;;;15.18;9.50;;;;;;;3.86;100.00;96959.41;4959614;28;20493;-81
2024/03/12 01:41:44;;;;;;;14.07;9.33;;;;;;;3.80;100.00;96956.84;4960244;28;20504;-81
2024/03/12 01:44:11;;;;;;;12.65;8.73;;;;;;;3.76;100.00;96963.56;4959793;28;20414;-81
2024/03/12 01:46:37;;;;;;;12.60;9.00;;;;;;;3.73;100.00;96963.97;4959815;28;20489;-80
2024/03/12 01:49:04;;;;;;;15.85;9.38;;;;;;;3.64;100.00;96957.44;4962485;28;20477;-81
2024/03/12 01:51:31;;;;;;;20.05;9.55;;;;;;;3.68;100.00;96959.41;4960248;28;20436;-80
2024/03/12 01:53:57;;;;;;;14.65;10.05;;;;;;;3.68;100.00;96964.66;4962018;28;20426;-80
2024/03/12 01:56:26;;;;;;;14.40;9.10;;;;;;;3.61;100.00;96971.75;4959801;28;20408;-80
2024/03/12 01:58:56;;;;;;;13.95;9.45;;;;;;;3.60;100.00;96975.41;4960029;28;20438;-79
2024/03/12 02:01:22;;;;;;;14.15;9.13;;;;;;;3.64;100.00;96970.50;4958302;28;20412;-79
2024/03/12 02:03:51;;;;;;;14.93;9.52;;;;;;;3.60;100.00;96970.16;4959153;28;20413;-81
2024/03/12 02:06:19;;;;;;;15.57;9.90;;;;;;;3.56;100.00;96973.41;4958879;28;20895;-81
2024/03/12 02:08:45;;;;;;;13.52;9.25;;;;;;;3.60;100.00;96982.44;4959408;28;20409;-81
2024/03/12 02:11:11;;;;;;;14.13;9.57;;;;;;;3.59;100.00;96980.84;4959367;28;20870;-81
2024/03/12 02:13:37;;;;;;;17.83;9.87;;;;;;;3.61;100.00;96979.59;4959095;28;20406;-80
2024/03/12 02:16:06;;;;;;;14.60;9.30;;;;;;;3.57;100.00;96975.81;4959324;28;20774;-81
2024/03/12 02:18:35;;;;;;;14.88;10.18;;;;;;;3.60;100.00;96974.59;4960561;28;20409;-81
2024/03/12 02:21:03;;;;;;;13.90;9.57;;;;;;;3.62;100.00;96980.41;4958883;28;20410;-79
2024/03/12 02:23:37;;;;;;;13.98;9.10;;;;;;;3.61;100.00;96984.81;4958104;28;20508;-79
2024/03/12 02:26:03;;;;;;;16.70;9.48;;;;;;;3.60;100.00;96985.88;4958882;28;20413;-80
2024/03/12 02:28:30;;;;;;;15.00;9.02;;;;;;;3.57;100.00;96988.09;4958495;28;20409;-81
2024/03/12 02:30:56;;;;;;;15.20;8.90;;;;;;;3.55;100.00;96990.94;4958553;28;20453;-80
2024/03/12 02:33:23;;;;;;;14.43;8.13;;;;;;;3.50;100.00;96985.56;4958396;28;20429;-80
2024/03/12 02:35:49;;;;;;;14.80;8.25;;;;;;;3.46;100.00;96986.97;4958919;28;20402;-80
2024/03/12 02:38:15;;;;;;;15.32;9.07;;;;;;;3.46;100.00;96994.84;4957922;28;20398;-80
2024/03/12 02:40:43;;;;;;;14.82;8.85;;;;;;;3.46;100.00;96992.22;4957846;28;20413;-80
2024/03/12 02:43:09;;;;;;;13.98;8.70;;;;;;;3.43;100.00;96998.69;4957179;28;20541;-77
2024/03/12 02:45:36;;;;;;;13.57;9.13;;;;;;;3.39;100.00;96988.84;4958325;28;20406;-80
2024/03/12 02:48:04;;;;;;;18.95;9.05;;;;;;;3.37;100.00;96996.94;4959233;28;20413;-80
2024/03/12 02:50:31;;;;;;;14.07;9.20;;;;;;;3.36;100.00;96995.34;4956488;28;20424;-79
2024/03/12 02:52:57;;;;;;;16.33;9.73;;;;;;;3.35;100.00;96995.56;4957557;28;20461;-80
2024/03/12 02:55:23;;;;;;;14.05;8.88;;;;;;;3.33;100.00;96998.38;4956715;28;20753;-77
2024/03/12 02:57:51;;;;;;;13.75;9.18;;;;;;;3.32;100.00;97002.00;4959041;28;20405;-79
2024/03/12 03:00:17;;;;;;;16.63;9.40;;;;;;;3.29;100.00;97005.06;4959223;28;20418;-80
2024/03/12 03:02:44;;;;;;;12.75;8.50;;;;;;;3.31;100.00;97005.63;4957424;28;20474;-78
2024/03/12 03:05:10;;;;;;;18.23;8.73;;;;;;;3.29;100.00;96996.41;4956426;28;20397;-78
2024/03/12 03:07:36;;;;;;;12.75;8.70;;;;;;;3.28;100.00;97002.66;4955242;28;20402;-78
2024/03/12 03:10:03;;;;;;;13.90;8.60;;;;;;;3.22;100.00;97001.72;4956718;28;20402;-78
2024/03/12 03:12:29;;;;;;;14.82;8.57;;;;;;;3.21;100.00;97000.09;4956048;28;20422;-80
2024/03/12 03:14:57;;;;;;;12.95;8.27;;;;;;;3.18;100.00;97005.75;4956764;28;20903;-80
2024/03/12 03:17:23;;;;;;;12.10;8.52;;;;;;;3.16;100.00;97002.53;4956460;28;20449;-80
2024/03/12 03:19:50;;;;;;;13.70;8.02;;;;;;;3.09;100.00;97002.59;4957156;28;20706;-80
2024/03/12 03:22:16;;;;;;;14.82;9.25;;;;;;;3.12;100.00;97009.22;4957231;28;20416;-80
2024/03/12 03:24:43;;;;;;;14.85;8.77;;;;;;;3.17;100.00;97004.13;4956975;28;20397;-79
2024/03/12 03:27:09;;;;;;;14.70;8.93;;;;;;;3.26;100.00;97007.28;4956982;28;20481;-80
2024/03/12 03:29:36;;;;;;;14.95;9.23;;;;;;;3.34;100.00;97013.06;4955288;28;20421;-80
2024/03/12 03:32:06;;;;;;;15.40;9.45;;;;;;;3.42;100.00;97019.84;4957076;28;20429;-80
2024/03/12 03:34:33;;;;;;;15.60;8.82;;;;;;;3.55;100.00;97011.06;4956689;28;20402;-79
2024/03/12 03:36:59;;;;;;;12.77;8.30;;;;;;;3.63;100.00;97005.56;4956233;28;20409;-79
2024/03/12 03:39:26;;;;;;;11.45;7.63;;;;;;;3.71;100.00;97010.50;4956538;29;20895;-79
2024/03/12 03:41:52;;;;;;;13.02;7.60;;;;;;;3.79;100.00;97023.31;4956791;28;20847;-79
2024/03/12 03:44:18;;;;;;;14.32;8.43;;;;;;;3.87;100.00;97031.69;4956643;28;20398;-80
2024/03/12 03:46:45;;;;;;;10.90;7.20;;;;;;;3.91;100.00;97032.03;4958328;28;20429;-80
2024/03/12 03:49:12;;;;;;;11.80;7.28;;;;;;;3.99;100.00;97030.97;4960119;28;20417;-79
2024/03/12 03:51:39;;;;;;;15.00;7.73;;;;;;;4.05;100.00;97032.72;4956671;28;20426;-80
2024/03/12 03:54:07;;;;;;;11.00;7.00;;;;;;;4.08;100.00;97030.47;4957467;28;20406;-79
2024/03/12 03:56:33;;;;;;;11.27;6.80;;;;;;;4.14;100.00;97044.50;4956855;28;20414;-80
2024/03/12 03:59:01;;;;;;;10.63;7.10;;;;;;;4.15;100.00;97043.47;4956533;28;20936;-80
2024/03/12 04:01:30;;;;;;;14.88;6.90;;;;;;;4.16;100.00;97048.50;4957076;28;20441;-79
2024/03/12 04:03:57;;;;;;;11.55;6.57;;;;;;;4.17;100.00;97041.44;4959299;28;20406;-80
2024/03/12 04:06:24;;;;;;;10.02;5.80;;;;;;;4.18;100.00;97048.28;4960260;28;20406;-79
2024/03/12 04:08:53;;;;;;;11.13;6.80;;;;;;;4.20;100.00;97051.50;4967388;28;20474;-79
2024/03/12 04:11:20;;;;;;;9.83;5.87;;;;;;;4.20;100.00;97056.75;4979142;28;20405;-80
2024/03/12 04:13:46;;;;;;;10.38;6.30;;;;;;;4.23;100.00;97056.28;4968961;28;20429;-80
2024/03/12 04:16:13;;;;;;;8.27;5.90;;;;;;;4.25;100.00;97059.50;4961102;28;20560;-80
2024/03/12 04:18:39;;;;;;;10.77;5.80;;;;;;;4.27;100.00;97062.72;4961135;28;20406;-80
2024/03/12 04:21:05;;;;;;;13.55;7.40;;;;;;;4.26;100.00;97059.28;4961284;28;20473;-81
2024/03/12 04:23:33;;;;;;;11.50;6.07;;;;;;;4.33;100.00;97071.50;4961056;28;20418;-80
2024/03/12 04:25:59;;;;;;;10.38;5.55;;;;;;;4.36;100.00;97066.59;4961830;28;20409;-79
2024/03/12 04:28:25;;;;;;;11.32;6.18;;;;;;;4.45;100.00;97067.13;4960647;28;20468;-79
2024/03/12 04:30:52;;;;;;;12.10;6.53;;;;;;;4.46;100.00;97079.22;4960466;28;20406;-79
2024/03/12 04:33:18;;;;;;;12.43;6.55;;;;;;;4.46;100.00;97073.97;4960252;28;20428;-80
2024/03/12 04:35:44;;;;;;;10.90;6.72;;;;;;;4.52;100.00;97079.13;4974856;28;20495;-80
2024/03/12 04:38:11;;;;;;;9.82;6.15;;;;;;;4.59;100.00;97082.47;4979398;28;20812;-80
2024/03/12 04:40:38;;;;;;;9.93;5.97;;;;;;;4.57;100.00;97076.66;4979137;28;20416;-79
2024/03/12 04:43:04;;;;;;;8.18;5.70;;;;;;;4.72;100.00;97083.34;4979216;28;20459;-80
2024/03/12 04:45:31;;;;;;;9.20;6.00;;;;;;;4.68;100.00;97086.38;4979140;28;20404;-80
2024/03/12 04:47:57;;;;;;;10.23;5.53;;;;;;;4.67;100.00;97086.59;4978902;28;20463;-79
2024/03/12 04:50:23;;;;;;;12.25;6.35;;;;;;;4.80;100.00;97096.16;4978736;28;20468;-79
2024/03/12 04:52:50;;;;;;;12.63;6.00;;;;;;;4.84;100.00;97092.03;4978922;28;20998;-79
2024/03/12 04:55:16;;;;;;;11.25;5.90;;;;;;;4.82;100.00;97107.19;4980154;28;20408;-80
2024/03/12 04:57:43;;;;;;;8.27;4.93;;;;;;;4.87;100.00;97104.72;4988595;28;20399;-80
2024/03/12 05:00:13;;;;;;;9.80;5.20;;;;;;;4.91;100.00;97105.88;4988544;28;20431;-80
2024/03/12 05:02:40;;;;;;;9.45;5.50;;;;;;;4.97;100.00;97116.28;4982468;28;20412;-79
2024/03/12 05:05:11;;;;;;;9.13;5.43;;;;;;;4.92;100.00;97120.59;4980101;28;20604;-80
2024/03/12 05:07:37;;;;;;;8.93;5.65;;;;;;;4.86;100.00;97124.09;4976861;28;20427;-80
2024/03/12 05:10:04;;;;;;;10.40;5.70;;;;;;;4.79;100.00;97123.38;4977847;28;20936;-80
2024/03/12 05:12:30;;;;;;;9.57;5.53;;;;;;;4.75;100.00;97127.44;4979410;28;20438;-80
2024/03/12 05:14:58;;;;;;;8.57;5.38;;;;;;;4.67;100.00;97131.97;4979050;28;20834;-80
2024/03/12 05:17:24;;;;;;;11.13;5.97;;;;;;;4.63;100.00;97141.31;4980808;28;20747;-79
2024/03/12 05:19:50;;;;;;;11.02;6.00;;;;;;;4.61;100.00;97139.91;4979565;28;20478;-79
2024/03/12 05:22:16;;;;;;;10.52;6.22;;;;;;;4.59;100.00;97140.13;4981793;28;20456;-79
2024/03/12 05:24:43;;;;;;;9.18;5.85;;;;;;;4.56;100.00;97145.81;4978925;28;20400;-80
2024/03/12 05:27:10;;;;;;;13.48;6.57;;;;;;;4.57;100.00;97147.44;4979065;28;20432;-81
2024/03/12 05:29:43;;;;;;;11.52;6.90;;;;;;;4.55;100.00;97154.72;4979682;28;20400;-80
2024/03/12 05:32:21;;;;;;;16.83;6.38;;;;;;;4.56;100.00;97152.88;4978145;28;20432;-79
2024/03/12 05:34:48;;;;;;;13.82;7.53;;;;;;;4.55;100.00;97154.72;4977118;28;20427;-79
2024/03/12 05:37:28;;;;;;;11.83;6.77;;;;;;;4.56;100.00;97156.31;4992294;28;20408;-81
2024/03/12 05:40:13;;;;;;;12.13;6.80;;;;;;;4.57;100.00;97157.91;4995042;28;20484;-80
2024/03/12 05:48:10;;;;;;;13.60;7.40;;;;;;;4.53;100.00;97167.22;4977981;28;20492;-81
2024/03/12 05:50:37;;;;;;;16.83;8.32;;;;;;;4.51;100.00;97163.25;4978867;28;20400;-80
2024/03/12 05:53:03;;;;;;;18.97;8.00;;;;;;;4.51;100.00;97168.47;4978205;28;20430;-79
2024/03/12 05:55:30;;;;;;;14.98;7.82;;;;;;;4.54;100.00;97174.06;4976371;28;20415;-80
2024/03/12 05:57:56;;;;;;;12.48;7.57;;;;;;;4.55;100.00;97177.50;4978702;28;20428;-80
2024/03/12 06:00:23;;;;;;;13.85;7.22;;;;;;;4.58;100.00;97184.94;4976883;28;20439;-79
2024/03/12 06:02:49;;;;;;;18.10;8.05;;;;;;;4.58;100.00;97183.13;4975049;28;20412;-79
2024/03/12 06:05:17;;;;;;;13.93;7.27;;;;;;;4.67;100.00;97179.16;4975240;28;20877;-79
2024/03/12 06:07:49;;;;;;;12.43;6.93;;;;;;;4.67;100.00;97186.22;4974152;28;20420;-80
2024/03/12 06:10:18;;;;;;;12.32;7.40;;;;;;;4.70;100.00;97182.38;4956205;28;20879;-78
2024/03/12 06:12:44;;;;;;;15.57;7.43;;;;;;;4.70;100.00;97188.44;4970724;28;20423;-79
2024/03/12 06:15:10;;;;;;;12.43;7.20;;;;;;;4.74;100.00;97192.19;4974917;28;20920;-79
2024/03/12 06:17:40;;;;;;;12.20;6.47;;;;;;;4.77;100.00;97196.22;4975932;28;20440;-78
2024/03/12 06:20:07;;;;;;;9.55;6.38;;;;;;;4.77;100.00;97198.84;4975707;28;20440;-78
2024/03/12 06:22:34;;;;;;;12.52;6.80;;;;;;;4.82;100.00;97198.97;4975483;28;20450;-78
2024/03/12 06:25:00;;;;;;;14.77;6.97;;;;;;;4.83;100.00;97203.19;4979232;28;20443;-78
2024/03/12 06:27:26;;;;;;;13.07;6.82;;;;;;;4.84;100.00;97205.59;4976577;28;20404;-79
2024/03/12 06:29:53;;;;;;;13.43;6.55;;;;;;;4.89;100.00;97199.69;4979030;28;20400;-79
2024/03/12 06:32:20;;;;;;;8.77;5.97;;;;;;;4.91;100.00;97201.09;4980924;28;20447;-80
2024/03/12 06:34:47;;;;;;;12.07;6.75;;;;;;;4.96;100.00;97211.72;4986296;28;20415;-79
2024/03/12 06:37:13;;;;;;;10.77;6.30;;;;;;;4.99;100.00;97200.00;4980646;28;20401;-79
2024/03/12 06:39:41;;;;;;;13.70;6.75;;;;;;;5.03;100.00;97209.03;4979741;28;20467;-79
2024/03/12 06:42:08;;;;;;;14.48;7.20;;;;;;;5.15;100.00;97207.28;4981098;28;20419;-79
2024/03/12 06:44:40;;;;;;;10.43;6.65;;;;;;;5.21;100.00;97216.88;4980113;28;20419;-79
2024/03/12 06:47:07;;;;;;;9.68;6.20;;;;;;;5.24;100.00;97213.03;4977367;28;20775;-78
2024/03/12 06:49:33;;;;;;;12.23;6.13;;;;;;;5.22;100.00;97210.63;4981110;28;20907;-79
2024/03/12 06:52:00;;;;;;;9.90;6.30;;;;;;;5.27;100.00;97220.44;4984386;28;20451;-80
2024/03/12 06:54:32;;;;;;;13.95;6.63;;;;;;;5.23;100.00;97217.47;4988421;28;20416;-78
2024/03/12 06:56:59;;;;;;;9.80;6.22;;;;;;;5.32;100.00;97228.47;4985792;28;20444;-79
2024/03/12 06:59:25;;;;;;;11.37;5.67;;;;;;;5.39;100.00;97223.94;4979172;28;20420;-79
2024/03/12 07:01:53;;;;;;;7.78;5.30;;;;;;;5.43;100.00;97228.50;4977513;28;20459;-77
2024/03/12 07:04:23;;;;;;;9.13;5.53;;;;;;;5.49;100.00;97228.66;4976899;28;20396;-79
2024/03/12 07:06:50;;;;;;;10.27;5.57;;;;;;;5.43;100.00;97233.75;4978257;28;20505;-76
2024/03/12 07:09:26;;;;;;;9.63;5.53;;;;;;;5.51;100.00;97227.41;4981799;28;20449;-80
2024/03/12 07:11:54;;;;;;;9.70;4.75;;;;;;;5.53;100.00;97235.84;4979959;28;20459;-79
2024/03/12 07:14:27;;;;;;;8.53;5.23;;;;;;;5.57;100.00;97237.00;4987192;28;20428;-80
2024/03/12 07:16:55;;;;;;;8.82;5.07;;;;;;;5.66;100.00;97240.13;4989816;28;20475;-80
2024/03/12 07:19:25;;;;;;;6.60;5.00;;;;;;;5.76;100.00;97232.50;4989081;28;20415;-80
2024/03/12 07:21:54;;;;;;;7.85;4.80;;;;;;;5.74;100.00;97240.59;4986028;28;20432;-80
2024/03/12 07:24:20;;;;;;;7.20;4.30;;;;;;;5.81;100.00;97241.31;4979463;28;20889;-79
2024/03/12 07:26:47;;;;;;;6.30;4.18;;;;;;;5.91;100.00;97237.38;4976761;28;20435;-79
2024/03/12 07:29:13;;;;;;;9.38;5.15;;;;;;;5.88;100.00;97240.44;4973404;28;20416;-77
2024/03/12 07:31:41;;;;;;;7.75;4.88;;;;;;;5.86;100.00;97239.84;4975424;28;20499;-79
2024/03/12 07:34:07;;;;;;;7.53;4.68;;;;;;;5.89;100.00;97232.34;4977625;28;20878;-81
2024/03/12 07:36:33;;;;;;;7.78;4.78;;;;;;;5.80;100.00;97237.09;4982158;28;20410;-81
2024/03/12 07:38:59;;;;;;;8.57;4.78;;;;;;;5.90;100.00;97236.56;4985978;28;20403;-80
2024/03/12 07:41:26;;;;;;;6.70;4.18;;;;;;;5.84;100.00;97242.69;4984949;28;20484;-79
2024/03/12 07:43:52;;;;;;;6.80;4.40;;;;;;;5.82;100.00;97235.03;4985330;28;20546;-78
2024/03/12 07:46:18;;;;;;;7.47;4.47;;;;;;;5.90;100.00;97243.66;4985041;28;20432;-79
2024/03/12 07:48:47;;;;;;;5.93;4.20;;;;;;;5.92;100.00;97244.25;4985989;28;20399;-81
2024/03/12 07:51:13;;;;;;;6.35;4.10;;;;;;;5.91;100.00;97246.06;4986239;28;20404;-80
2024/03/12 07:53:40;;;;;;;9.63;4.10;;;;;;;5.93;100.00;97249.28;4986045;28;20921;-80
2024/03/12 07:56:06;;;;;;;7.63;4.13;;;;;;;5.97;100.00;97252.25;4987431;28;20869;-80
2024/03/12 07:58:33;;;;;;;5.78;3.95;;;;;;;5.97;100.00;97260.13;4987326;28;20423;-80
2024/03/12 08:01:01;;;;;;;5.20;3.60;;;;;;;5.92;100.00;97262.63;4989245;28;20532;-81
2024/03/12 08:03:27;;;;;;;5.82;3.55;;;;;;;5.95;100.00;97256.91;4989381;28;20406;-79
2024/03/12 08:05:55;;;;;;;4.90;3.40;;;;;;;5.91;100.00;97264.44;4988394;28;20893;-80
2024/03/12 08:08:22;;;;;;;3.67;3.10;;;;;;;5.90;100.00;97264.66;4988432;28;20408;-78
2024/03/12 08:10:48;;;;;;;8.43;3.60;;;;;;;5.95;100.00;97262.97;4988934;28;20485;-80
2024/03/12 08:13:14;;;;;;;4.35;3.00;;;;;;;6.09;100.00;97263.59;4986805;28;20424;-80
2024/03/12 08:15:40;;;;;;;5.17;3.30;;;;;;;6.27;100.00;97281.09;4987824;28;20408;-81
2024/03/12 08:18:07;;;;;;;4.28;3.15;;;;;;;6.34;100.00;97287.84;4986777;28;20404;-79
2024/03/12 08:20:34;;;;;;;3.75;2.95;;;;;;;6.44;100.00;97289.94;4988494;28;20392;-81
2024/03/12 08:23:03;;;;;;;4.25;2.97;;;;;;;6.46;100.00;97288.69;4988886;28;20404;-80
2024/03/12 08:25:32;;;;;;;6.28;3.55;;;;;;;6.41;100.00;97280.66;4988656;28;20400;-80
2024/03/12 08:27:58;;;;;;;4.15;2.88;;;;;;;6.38;100.00;97280.31;4987484;28;20463;-81
2024/03/12 08:30:24;;;;;;;5.13;2.95;;;;;;;6.36;100.00;97277.13;4987562;28;20436;-80
2024/03/12 08:32:50;;;;;;;5.60;2.90;;;;;;;6.38;100.00;97290.84;4989095;28;20413;-81
2024/03/12 08:35:18;;;;;;;5.22;2.72;;;;;;;6.33;100.00;97283.63;4977631;28;20406;-82
2024/03/12 08:37:44;;;;;;;4.07;3.13;;;;;;;6.43;100.00;97289.13;4973782;28;20412;-82
2024/03/12 08:40:14;;;;;;;4.03;2.90;;;;;;;6.52;100.00;97290.41;4983351;28;20445;-81
2024/03/12 08:42:40;;;;;;;4.65;2.55;;;;;;;6.51;100.00;97288.81;4987705;28;20424;-80
2024/03/12 08:45:08;;;;;;;4.03;2.58;;;;;;;6.52;100.00;97300.13;4987299;28;20492;-83
2024/03/12 08:47:35;;;;;;;3.78;2.70;;;;;;;6.53;100.00;97291.22;4986779;28;20396;-79
2024/03/12 08:50:02;;;;;;;3.45;2.50;;;;;;;6.62;100.00;97295.09;4985706;28;20418;-80
2024/03/12 08:52:30;;;;;;;5.03;2.85;;;;;;;6.57;100.00;97295.78;4985566;28;20424;-80
2024/03/12 08:54:57;;;;;;;3.42;2.63;;;;;;;6.63;100.00;97294.06;4985973;28;20427;-80
2024/03/12 08:57:26;;;;;;;8.60;2.95;;;;;;;6.76;100.00;97301.75;4985214;28;20487;-77
2024/03/12 08:59:52;;;;;;;5.43;2.70;;;;;;;6.82;100.00;97305.28;4987049;28;20412;-82
2024/03/12 09:02:18;;;;;;;6.07;2.90;;;;;;;6.89;100.00;97311.22;4986234;28;20428;-81
2024/03/12 09:04:44;;;;;;;5.90;2.85;;;;;;;7.05;100.00;97309.75;4986766;28;20499;-80
2024/03/12 09:07:11;;;;;;;3.88;2.42;;;;;;;7.05;100.00;97317.63;4987007;28;20415;-80
2024/03/12 09:09:39;;;;;;;5.88;2.78;;;;;;;7.19;100.00;97319.00;4988397;28;20870;-81
2024/03/12 09:12:06;;;;;;;5.30;2.75;;;;;;;7.33;100.00;97317.72;4986213;28;20423;-79
2024/03/12 09:14:35;;;;;;;5.18;2.78;;;;;;;7.13;100.00;97309.41;4977691;28;20430;-81
2024/03/12 09:17:05;;;;;;;6.70;3.30;;;;;;;7.10;100.00;97309.84;4966570;28;20429;-79
2024/03/12 09:19:31;;;;;;;4.43;2.60;;;;;;;7.02;100.00;97310.19;4963406;28;20457;-81
2024/03/12 09:21:59;;;;;;;6.35;2.80;;;;;;;6.93;100.00;97305.28;4977258;28;20414;-81
2024/03/12 09:24:26;;;;;;;4.72;2.40;;;;;;;7.17;100.00;97313.16;4985958;28;20413;-80
2024/03/12 09:26:58;;;;;;;4.22;2.58;;;;;;;7.25;100.00;97320.69;4984093;28;20865;-80
2024/03/12 09:29:24;;;;;;;4.82;2.72;;;;;;;7.37;100.00;97324.91;4988200;28;20479;-84
2024/03/12 09:31:51;;;;;;;4.25;2.58;;;;;;;7.36;100.00;97330.44;4981010;28;20412;-78
2024/03/12 09:34:18;;;;;;;4.35;2.35;;;;;;;7.47;100.00;97336.69;4988932;28;20412;-81
2024/03/12 09:36:44;;;;;;;5.40;2.70;;;;;;;7.57;100.00;97334.28;4993031;28;20415;-81
2024/03/12 09:39:10;;;;;;;4.22;2.88;;;;;;;7.41;100.00;97335.00;4989035;28;20413;-81
2024/03/12 09:41:40;;;;;;;4.85;2.72;;;;;;;7.35;100.00;97334.88;4988807;28;20397;-83
2024/03/12 09:44:11;;;;;;;5.72;2.85;;;;;;;7.37;100.00;97330.16;4987312;28;20404;-81
2024/03/12 09:46:38;;;;;;;5.97;3.20;;;;;;;7.36;100.00;97335.69;4988347;28;20404;-83
2024/03/12 09:49:07;;;;;;;5.43;2.85;;;;;;;7.35;100.00;97342.78;4988680;28;20462;-82
2024/03/12 09:51:34;;;;;;;5.90;3.08;;;;;;;7.29;100.00;97330.53;4989058;28;20404;-82
2024/03/12 09:54:03;;;;;;;5.68;2.80;;;;;;;7.25;100.00;97337.28;4988762;28;20412;-79
2024/03/12 09:56:32;;;;;;;5.37;2.80;;;;;;;7.43;100.00;97341.63;4989177;28;20427;-79
2024/03/12 09:58:59;;;;;;;6.17;2.63;;;;;;;7.28;100.00;97336.03;4988974;28;20750;-82
2024/03/12 10:01:25;;;;;;;4.20;2.63;;;;;;;7.38;100.00;97339.69;4984473;28;20477;-80
2024/03/12 10:03:53;;;;;;;4.70;2.60;;;;;;;7.57;100.00;97342.19;4981733;28;20407;-80
2024/03/12 10:06:22;;;;;;;5.85;2.78;;;;;;;7.63;100.00;97363.13;4982223;28;20419;-81
2024/03/12 10:08:48;;;;;;;11.73;3.63;;;;;;;7.64;100.00;97348.91;4982742;28;20474;-78
2024/03/12 10:11:21;;;;;;;7.32;3.85;;;;;;;7.75;100.00;97347.25;4983475;28;20877;-79
2024/03/12 10:13:55;;;;;;;6.03;3.38;;;;;;;7.81;100.00;97351.63;4980577;28;20420;-80
2024/03/12 10:16:24;;;;;;;6.35;3.28;;;;;;;7.74;100.00;97346.47;4983641;28;20550;-79
2024/03/12 10:19:06;;;;;;;6.28;3.28;;;;;;;7.93;100.00;97346.31;4983336;28;20412;-81
2024/03/12 10:21:34;;;;;;;6.05;3.25;;;;;;;7.98;100.00;97357.72;4983843;28;20439;-80
2024/03/12 10:24:10;;;;;;;4.97;3.03;;;;;;;7.99;100.00;97356.69;4985876;28;20414;-80
2024/03/12 10:26:36;;;;;;;6.60;3.10;;;;;;;8.07;100.00;97360.81;4984460;28;20933;-79
2024/03/12 10:29:09;;;;;;;5.28;3.10;;;;;;;8.11;100.00;97360.13;4979038;28;20400;-80
2024/03/12 10:31:39;;;;;;;4.88;2.80;;;;;;;7.94;100.00;97356.63;4980284;28;20393;-81
2024/03/12 10:34:10;;;;;;;5.73;3.13;;;;;;;7.97;100.00;97358.00;4979453;28;20443;-80
2024/03/12 10:36:42;;;;;;;5.13;2.97;;;;;;;7.95;100.00;97360.06;4976188;28;20931;-80
2024/03/12 10:39:12;;;;;;;5.00;2.80;;;;;;;7.89;100.00;97368.91;4984185;28;20396;-80
2024/03/12 10:41:39;;;;;;;5.18;2.70;;;;;;;7.84;100.00;97359.03;4995538;28;20438;-80
2024/03/12 10:44:11;;;;;;;5.00;2.55;;;;;;;7.91;100.00;97362.34;4992675;28;20396;-80
2024/03/12 10:46:39;;;;;;;5.38;2.50;;;;;;;7.95;100.00;97363.50;4980727;28;20897;-80
2024/03/12 10:49:10;;;;;;;4.82;2.50;;;;;;;7.98;100.00;97365.63;4979565;28;20724;-80
2024/03/12 10:51:42;;;;;;;5.10;2.50;;;;;;;8.04;100.00;97367.34;4978567;28;20448;-81
2024/03/12 10:54:16;;;;;;;5.88;2.80;;;;;;;7.93;100.00;97364.75;4979590;28;20420;-80
2024/03/12 10:56:45;;;;;;;4.40;2.40;;;;;;;7.94;100.00;97369.78;4980348;28;20460;-78
2024/03/12 10:59:12;;;;;;;3.23;2.20;;;;;;;7.91;100.00;97375.53;4979813;28;20498;-80
2024/03/12 11:01:40;;;;;;;3.75;2.45;;;;;;;7.82;100.00;97369.00;4980086;28;20392;-79
2024/03/12 11:04:09;;;;;;;5.10;2.50;;;;;;;7.74;100.00;97361.50;4977907;28;20411;-79
2024/03/12 11:06:39;;;;;;;3.80;2.50;;;;;;;7.81;100.00;97370.06;4979353;28;20393;-80
2024/03/12 11:09:08;;;;;;;4.95;2.35;;;;;;;7.72;100.00;97367.00;4979548;28;20400;-80
2024/03/12 11:11:35;;;;;;;3.72;2.47;;;;;;;7.81;100.00;97375.34;4979287;28;20411;-80
2024/03/12 11:14:02;;;;;;;3.67;2.40;;;;;;;7.86;100.00;97379.91;4981599;28;20424;-80
2024/03/12 11:16:32;;;;;;;4.10;2.40;;;;;;;7.80;100.00;97375.56;4981114;28;20397;-79
2024/03/12 11:19:18;;;;;;;4.75;2.30;;;;;;;7.71;100.00;97372.50;4978746;28;20432;-80
2024/03/12 11:21:47;;;;;;;4.35;2.40;;;;;;;7.72;100.00;97382.81;4981506;28;20495;-81
2024/03/12 11:24:24;;;;;;;3.65;2.70;;;;;;;7.62;100.00;97374.69;4980006;28;20408;-80
2024/03/12 11:26:51;;;;;;;5.63;2.78;;;;;;;7.65;100.00;97379.50;4979824;28;20411;-80
2024/03/12 11:29:18;;;;;;;6.75;3.00;;;;;;;7.64;100.00;97385.78;4979306;28;20400;-79
2024/03/12 11:31:44;;;;;;;6.67;3.60;;;;;;;7.61;100.00;97394.16;4980745;28;20399;-81
2024/03/12 11:34:30;;;;;;;7.72;3.55;;;;;;;7.75;100.00;97386.78;4982398;28;20424;-80
2024/03/12 11:37:14;;;;;;;5.88;3.25;;;;;;;7.81;100.00;97392.97;4984893;28;20585;-81